Richardson's Hourly Summary for Sunday, May 13, 2018
Hour Temp
(f)
RH
(%)
Solar Rad.
(MJ/m2)
Rainfall
(in)
Wind
(mph)
5/13/2018 12:00 AM 77 62 0 0 4.38
5/13/2018 1:00 AM 76 66 0 0 5.12
5/13/2018 2:00 AM 76 70 0 0 6.89
5/13/2018 3:00 AM 75 74 0 0 7.87
5/13/2018 4:00 AM 74 78 0 0 7.39
5/13/2018 5:00 AM 73 80 0 0 6.98
5/13/2018 6:00 AM 72 84 0 0 6.12
5/13/2018 7:00 AM 71 85 0.02 0 5.52
5/13/2018 8:00 AM 72 81 0.35 0 4.65
5/13/2018 9:00 AM 74 75 0.91 0 6.46
5/13/2018 10:00 AM 76 67 1.4 0 7.66
5/13/2018 11:00 AM 79 59 2.39 0 7.68
5/13/2018 12:00 PM 80 56 2.32 0 7.7
5/13/2018 1:00 PM 82 53 2.08 0 7.6
5/13/2018 2:00 PM 84 48 2.65 0 8.22
5/13/2018 3:00 PM 85 45 2.95 0 8.49
5/13/2018 4:00 PM 86 42 2.68 0 8.62
5/13/2018 5:00 PM 87 43 2.11 0 8.56
5/13/2018 6:00 PM 86 42 1.38 0 8.24
5/13/2018 7:00 PM 84 49 0.4 0 6.91
5/13/2018 8:00 PM 84 49 0.22 0 6.13
5/13/2018 9:00 PM 82 53 0.01 0 4.14
5/13/2018 10:00 PM 80 58 0 0 4.24
5/13/2018 11:00 PM 79 61 0 0 4.51
Data Summary 78 61 21.87 0.00 6.67